sensor_id;sensor_type;location;lat;lon;timestamp;temperature;humidity
84739;DHT22;74969;44.836;-0.586;2024-03-08T00:02:23;11.20;68.60
84739;DHT22;74969;44.836;-0.586;2024-03-08T00:04:49;11.30;68.30
84739;DHT22;74969;44.836;-0.586;2024-03-08T00:07:15;11.30;68.20
84739;DHT22;74969;44.836;-0.586;2024-03-08T00:09:40;11.30;68.30
84739;DHT22;74969;44.836;-0.586;2024-03-08T00:12:06;11.30;68.40
84739;DHT22;74969;44.836;-0.586;2024-03-08T00:14:32;11.30;68.50
84739;DHT22;74969;44.836;-0.586;2024-03-08T00:16:58;11.30;68.50
84739;DHT22;74969;44.836;-0.586;2024-03-08T00:19:24;11.20;68.60
84739;DHT22;74969;44.836;-0.586;2024-03-08T00:21:50;11.20;68.80
84739;DHT22;74969;44.836;-0.586;2024-03-08T00:24:15;11.20;68.80
84739;DHT22;74969;44.836;-0.586;2024-03-08T00:26:41;11.20;68.30
84739;DHT22;74969;44.836;-0.586;2024-03-08T00:29:08;11.20;68.70
84739;DHT22;74969;44.836;-0.586;2024-03-08T00:31:34;11.20;68.40
84739;DHT22;74969;44.836;-0.586;2024-03-08T00:34:00;11.20;68.50
84739;DHT22;74969;44.836;-0.586;2024-03-08T00:36:26;11.20;68.40
84739;DHT22;74969;44.836;-0.586;2024-03-08T00:38:52;11.30;68.50
84739;DHT22;74969;44.836;-0.586;2024-03-08T00:41:18;11.30;68.70
84739;DHT22;74969;44.836;-0.586;2024-03-08T00:43:43;11.20;68.70
84739;DHT22;74969;44.836;-0.586;2024-03-08T00:46:09;11.20;69.00
84739;DHT22;74969;44.836;-0.586;2024-03-08T00:48:35;11.10;69.20
84739;DHT22;74969;44.836;-0.586;2024-03-08T00:51:02;11.10;69.40
84739;DHT22;74969;44.836;-0.586;2024-03-08T00:53:27;11.10;69.50
84739;DHT22;74969;44.836;-0.586;2024-03-08T00:55:53;11.00;69.50
84739;DHT22;74969;44.836;-0.586;2024-03-08T00:58:20;11.00;69.70
84739;DHT22;74969;44.836;-0.586;2024-03-08T01:00:46;11.00;70.00
84739;DHT22;74969;44.836;-0.586;2024-03-08T01:03:12;11.00;70.00
84739;DHT22;74969;44.836;-0.586;2024-03-08T01:05:38;10.90;69.90
84739;DHT22;74969;44.836;-0.586;2024-03-08T01:08:03;10.90;70.00
84739;DHT22;74969;44.836;-0.586;2024-03-08T01:10:30;10.90;70.20
84739;DHT22;74969;44.836;-0.586;2024-03-08T01:12:56;10.90;70.10
84739;DHT22;74969;44.836;-0.586;2024-03-08T01:15:23;10.90;70.20
84739;DHT22;74969;44.836;-0.586;2024-03-08T01:17:49;10.90;70.10
84739;DHT22;74969;44.836;-0.586;2024-03-08T01:20:15;10.90;70.30
84739;DHT22;74969;44.836;-0.586;2024-03-08T01:22:41;10.90;70.20
84739;DHT22;74969;44.836;-0.586;2024-03-08T01:25:07;10.90;70.20
84739;DHT22;74969;44.836;-0.586;2024-03-08T01:27:34;10.90;70.30
84739;DHT22;74969;44.836;-0.586;2024-03-08T01:30:01;10.90;70.30
84739;DHT22;74969;44.836;-0.586;2024-03-08T01:32:26;10.90;70.30
84739;DHT22;74969;44.836;-0.586;2024-03-08T01:34:52;10.90;70.10
84739;DHT22;74969;44.836;-0.586;2024-03-08T01:37:18;10.90;70.10
84739;DHT22;74969;44.836;-0.586;2024-03-08T01:39:44;10.90;70.20
84739;DHT22;74969;44.836;-0.586;2024-03-08T01:42:09;10.90;70.20
84739;DHT22;74969;44.836;-0.586;2024-03-08T01:44:38;10.90;70.30
84739;DHT22;74969;44.836;-0.586;2024-03-08T01:47:05;10.90;70.20
84739;DHT22;74969;44.836;-0.586;2024-03-08T01:49:31;10.90;70.10
84739;DHT22;74969;44.836;-0.586;2024-03-08T01:51:57;10.80;70.20
84739;DHT22;74969;44.836;-0.586;2024-03-08T01:54:23;10.80;70.20
84739;DHT22;74969;44.836;-0.586;2024-03-08T01:56:50;10.80;69.90
84739;DHT22;74969;44.836;-0.586;2024-03-08T01:59:16;10.90;70.00
84739;DHT22;74969;44.836;-0.586;2024-03-08T02:01:42;10.80;70.10
84739;DHT22;74969;44.836;-0.586;2024-03-08T02:04:07;10.80;70.20
84739;DHT22;74969;44.836;-0.586;2024-03-08T02:06:33;10.80;70.20
84739;DHT22;74969;44.836;-0.586;2024-03-08T02:08:59;10.80;70.20
84739;DHT22;74969;44.836;-0.586;2024-03-08T02:11:26;10.70;70.20
84739;DHT22;74969;44.836;-0.586;2024-03-08T02:13:52;10.70;70.30
84739;DHT22;74969;44.836;-0.586;2024-03-08T02:16:21;10.70;70.40
84739;DHT22;74969;44.836;-0.586;2024-03-08T02:18:48;10.70;70.50
84739;DHT22;74969;44.836;-0.586;2024-03-08T02:21:16;10.60;70.50
84739;DHT22;74969;44.836;-0.586;2024-03-08T02:23:43;10.60;70.70
84739;DHT22;74969;44.836;-0.586;2024-03-08T02:26:09;10.50;70.80
84739;DHT22;74969;44.836;-0.586;2024-03-08T02:28:35;10.50;70.90
84739;DHT22;74969;44.836;-0.586;2024-03-08T02:31:01;10.50;71.10
84739;DHT22;74969;44.836;-0.586;2024-03-08T02:33:28;10.50;71.10
84739;DHT22;74969;44.836;-0.586;2024-03-08T02:35:54;10.50;71.10
84739;DHT22;74969;44.836;-0.586;2024-03-08T02:38:22;10.50;71.30
84739;DHT22;74969;44.836;-0.586;2024-03-08T02:40:52;10.50;71.20
84739;DHT22;74969;44.836;-0.586;2024-03-08T02:43:19;10.50;71.10
84739;DHT22;74969;44.836;-0.586;2024-03-08T02:45:45;10.60;71.10
84739;DHT22;74969;44.836;-0.586;2024-03-08T02:48:11;10.50;71.20
84739;DHT22;74969;44.836;-0.586;2024-03-08T02:50:38;10.50;71.20
84739;DHT22;74969;44.836;-0.586;2024-03-08T02:53:08;10.50;71.20
84739;DHT22;74969;44.836;-0.586;2024-03-08T02:55:33;10.50;71.30
84739;DHT22;74969;44.836;-0.586;2024-03-08T02:58:02;10.50;71.30
84739;DHT22;74969;44.836;-0.586;2024-03-08T03:00:28;10.50;71.00
84739;DHT22;74969;44.836;-0.586;2024-03-08T03:02:56;10.50;71.10
84739;DHT22;74969;44.836;-0.586;2024-03-08T03:05:23;10.50;71.10
84739;DHT22;74969;44.836;-0.586;2024-03-08T03:07:49;10.60;71.00
84739;DHT22;74969;44.836;-0.586;2024-03-08T03:10:18;10.60;71.00
84739;DHT22;74969;44.836;-0.586;2024-03-08T03:12:45;10.70;70.70
84739;DHT22;74969;44.836;-0.586;2024-03-08T03:15:12;10.60;70.80
84739;DHT22;74969;44.836;-0.586;2024-03-08T03:17:39;10.60;71.00
84739;DHT22;74969;44.836;-0.586;2024-03-08T03:20:07;10.60;71.00
84739;DHT22;74969;44.836;-0.586;2024-03-08T03:22:38;10.60;71.10
84739;DHT22;74969;44.836;-0.586;2024-03-08T03:25:04;10.60;70.80
84739;DHT22;74969;44.836;-0.586;2024-03-08T03:27:32;10.70;70.80
84739;DHT22;74969;44.836;-0.586;2024-03-08T03:29:58;10.70;70.80
84739;DHT22;74969;44.836;-0.586;2024-03-08T03:32:24;10.70;70.80
84739;DHT22;74969;44.836;-0.586;2024-03-08T03:34:50;10.70;70.80
84739;DHT22;74969;44.836;-0.586;2024-03-08T03:37:21;10.70;70.60
84739;DHT22;74969;44.836;-0.586;2024-03-08T03:39:47;10.70;70.60
84739;DHT22;74969;44.836;-0.586;2024-03-08T03:42:19;10.70;70.60
84739;DHT22;74969;44.836;-0.586;2024-03-08T03:44:48;10.70;70.70
84739;DHT22;74969;44.836;-0.586;2024-03-08T03:47:15;10.70;70.80
84739;DHT22;74969;44.836;-0.586;2024-03-08T03:49:43;10.60;71.00
84739;DHT22;74969;44.836;-0.586;2024-03-08T03:52:10;10.60;71.10
84739;DHT22;74969;44.836;-0.586;2024-03-08T03:54:36;10.50;71.20
84739;DHT22;74969;44.836;-0.586;2024-03-08T03:57:02;10.60;71.30
84739;DHT22;74969;44.836;-0.586;2024-03-08T03:59:28;10.60;71.30
84739;DHT22;74969;44.836;-0.586;2024-03-08T04:01:54;10.60;71.20
84739;DHT22;74969;44.836;-0.586;2024-03-08T04:04:23;10.50;71.30
84739;DHT22;74969;44.836;-0.586;2024-03-08T04:06:50;10.50;71.30
84739;DHT22;74969;44.836;-0.586;2024-03-08T04:09:16;10.50;71.60
84739;DHT22;74969;44.836;-0.586;2024-03-08T04:11:44;10.40;72.00
84739;DHT22;74969;44.836;-0.586;2024-03-08T04:14:10;10.40;72.00
84739;DHT22;74969;44.836;-0.586;2024-03-08T04:16:37;10.40;72.10
84739;DHT22;74969;44.836;-0.586;2024-03-08T04:19:02;10.40;72.00
84739;DHT22;74969;44.836;-0.586;2024-03-08T04:21:32;10.40;71.90
84739;DHT22;74969;44.836;-0.586;2024-03-08T04:23:58;10.40;72.00
84739;DHT22;74969;44.836;-0.586;2024-03-08T04:26:24;10.40;72.20
84739;DHT22;74969;44.836;-0.586;2024-03-08T04:28:51;10.40;72.20
84739;DHT22;74969;44.836;-0.586;2024-03-08T04:31:17;10.40;72.30
84739;DHT22;74969;44.836;-0.586;2024-03-08T04:33:42;10.40;72.40
84739;DHT22;74969;44.836;-0.586;2024-03-08T04:36:09;10.40;72.30
84739;DHT22;74969;44.836;-0.586;2024-03-08T04:38:42;10.40;72.10
84739;DHT22;74969;44.836;-0.586;2024-03-08T04:41:08;10.40;72.00
84739;DHT22;74969;44.836;-0.586;2024-03-08T04:43:34;10.40;72.30
84739;DHT22;74969;44.836;-0.586;2024-03-08T04:46:00;10.30;72.30
84739;DHT22;74969;44.836;-0.586;2024-03-08T04:48:29;10.30;72.40
84739;DHT22;74969;44.836;-0.586;2024-03-08T04:50:55;10.40;72.10
84739;DHT22;74969;44.836;-0.586;2024-03-08T04:53:21;10.40;72.20
84739;DHT22;74969;44.836;-0.586;2024-03-08T04:55:47;10.40;72.30
84739;DHT22;74969;44.836;-0.586;2024-03-08T04:58:13;10.40;72.40
84739;DHT22;74969;44.836;-0.586;2024-03-08T05:00:38;10.40;72.40
84739;DHT22;74969;44.836;-0.586;2024-03-08T05:03:04;10.40;72.20
84739;DHT22;74969;44.836;-0.586;2024-03-08T05:05:30;10.30;72.60
84739;DHT22;74969;44.836;-0.586;2024-03-08T05:07:56;10.40;72.70
84739;DHT22;74969;44.836;-0.586;2024-03-08T05:10:22;10.40;73.00
84739;DHT22;74969;44.836;-0.586;2024-03-08T05:12:48;10.40;72.80
84739;DHT22;74969;44.836;-0.586;2024-03-08T05:15:13;10.30;72.60
84739;DHT22;74969;44.836;-0.586;2024-03-08T05:17:40;10.30;73.10
84739;DHT22;74969;44.836;-0.586;2024-03-08T05:20:06;10.30;73.50
84739;DHT22;74969;44.836;-0.586;2024-03-08T05:22:37;10.20;73.40
84739;DHT22;74969;44.836;-0.586;2024-03-08T05:25:02;10.20;73.70
84739;DHT22;74969;44.836;-0.586;2024-03-08T05:27:28;10.20;74.10
84739;DHT22;74969;44.836;-0.586;2024-03-08T05:29:53;10.20;73.60
84739;DHT22;74969;44.836;-0.586;2024-03-08T05:32:19;10.20;73.70
84739;DHT22;74969;44.836;-0.586;2024-03-08T05:34:45;10.10;73.90
84739;DHT22;74969;44.836;-0.586;2024-03-08T05:37:11;10.10;74.20
84739;DHT22;74969;44.836;-0.586;2024-03-08T05:39:36;10.20;74.10
84739;DHT22;74969;44.836;-0.586;2024-03-08T05:42:02;10.20;73.40
84739;DHT22;74969;44.836;-0.586;2024-03-08T05:44:28;10.30;73.50
84739;DHT22;74969;44.836;-0.586;2024-03-08T05:46:57;10.30;73.60
84739;DHT22;74969;44.836;-0.586;2024-03-08T05:49:23;10.30;73.80
84739;DHT22;74969;44.836;-0.586;2024-03-08T05:51:50;10.30;74.00
84739;DHT22;74969;44.836;-0.586;2024-03-08T05:54:17;10.30;73.60
84739;DHT22;74969;44.836;-0.586;2024-03-08T05:56:42;10.40;73.50
84739;DHT22;74969;44.836;-0.586;2024-03-08T05:59:09;10.30;73.80
84739;DHT22;74969;44.836;-0.586;2024-03-08T06:01:35;10.30;73.90
84739;DHT22;74969;44.836;-0.586;2024-03-08T06:04:02;10.30;74.20
84739;DHT22;74969;44.836;-0.586;2024-03-08T06:06:29;10.30;74.40
84739;DHT22;74969;44.836;-0.586;2024-03-08T06:08:55;10.30;74.80
84739;DHT22;74969;44.836;-0.586;2024-03-08T06:11:24;10.20;74.90
84739;DHT22;74969;44.836;-0.586;2024-03-08T06:13:52;10.10;75.20
84739;DHT22;74969;44.836;-0.586;2024-03-08T06:16:20;10.00;75.70
84739;DHT22;74969;44.836;-0.586;2024-03-08T06:18:46;9.90;75.80
84739;DHT22;74969;44.836;-0.586;2024-03-08T06:21:12;9.80;76.70
84739;DHT22;74969;44.836;-0.586;2024-03-08T06:23:38;9.80;77.10
84739;DHT22;74969;44.836;-0.586;2024-03-08T06:26:10;9.70;77.10
84739;DHT22;74969;44.836;-0.586;2024-03-08T06:28:35;9.60;77.40
84739;DHT22;74969;44.836;-0.586;2024-03-08T06:31:02;9.60;77.70
84739;DHT22;74969;44.836;-0.586;2024-03-08T06:33:28;9.70;77.70
84739;DHT22;74969;44.836;-0.586;2024-03-08T06:35:54;9.70;77.80
84739;DHT22;74969;44.836;-0.586;2024-03-08T06:38:26;9.70;77.90
84739;DHT22;74969;44.836;-0.586;2024-03-08T06:40:52;9.70;77.60
84739;DHT22;74969;44.836;-0.586;2024-03-08T06:43:18;9.70;77.80
84739;DHT22;74969;44.836;-0.586;2024-03-08T06:45:47;9.70;77.90
84739;DHT22;74969;44.836;-0.586;2024-03-08T06:48:17;9.60;78.10
84739;DHT22;74969;44.836;-0.586;2024-03-08T06:50:47;9.70;78.10
84739;DHT22;74969;44.836;-0.586;2024-03-08T06:53:13;9.60;78.00
84739;DHT22;74969;44.836;-0.586;2024-03-08T06:55:39;9.60;78.40
84739;DHT22;74969;44.836;-0.586;2024-03-08T06:58:05;9.60;78.60
84739;DHT22;74969;44.836;-0.586;2024-03-08T07:00:32;9.50;79.10
84739;DHT22;74969;44.836;-0.586;2024-03-08T07:02:58;9.40;79.50
84739;DHT22;74969;44.836;-0.586;2024-03-08T07:05:28;9.40;79.40
84739;DHT22;74969;44.836;-0.586;2024-03-08T07:07:54;9.40;79.40
84739;DHT22;74969;44.836;-0.586;2024-03-08T07:10:21;9.40;79.60
84739;DHT22;74969;44.836;-0.586;2024-03-08T07:12:50;9.40;79.40
84739;DHT22;74969;44.836;-0.586;2024-03-08T07:15:15;9.50;79.20
84739;DHT22;74969;44.836;-0.586;2024-03-08T07:17:41;9.50;79.10
84739;DHT22;74969;44.836;-0.586;2024-03-08T07:20:10;9.50;79.20
84739;DHT22;74969;44.836;-0.586;2024-03-08T07:22:38;9.60;79.10
84739;DHT22;74969;44.836;-0.586;2024-03-08T07:25:07;9.60;78.90
84739;DHT22;74969;44.836;-0.586;2024-03-08T07:27:33;9.70;78.70
84739;DHT22;74969;44.836;-0.586;2024-03-08T07:30:05;9.70;78.80
84739;DHT22;74969;44.836;-0.586;2024-03-08T07:32:31;9.70;78.60
84739;DHT22;74969;44.836;-0.586;2024-03-08T07:34:57;9.70;79.00
84739;DHT22;74969;44.836;-0.586;2024-03-08T07:37:23;9.60;78.90
84739;DHT22;74969;44.836;-0.586;2024-03-08T07:39:49;9.60;79.30
84739;DHT22;74969;44.836;-0.586;2024-03-08T07:42:15;9.60;79.30
84739;DHT22;74969;44.836;-0.586;2024-03-08T07:44:42;9.60;79.30
84739;DHT22;74969;44.836;-0.586;2024-03-08T07:47:08;9.60;79.40
84739;DHT22;74969;44.836;-0.586;2024-03-08T07:49:35;9.50;79.50
84739;DHT22;74969;44.836;-0.586;2024-03-08T07:52:03;9.60;79.60
84739;DHT22;74969;44.836;-0.586;2024-03-08T07:54:30;9.60;79.80
84739;DHT22;74969;44.836;-0.586;2024-03-08T07:56:56;9.60;79.60
84739;DHT22;74969;44.836;-0.586;2024-03-08T07:59:21;9.50;79.80
84739;DHT22;74969;44.836;-0.586;2024-03-08T08:01:47;9.50;79.60
84739;DHT22;74969;44.836;-0.586;2024-03-08T08:04:13;9.50;79.80
84739;DHT22;74969;44.836;-0.586;2024-03-08T08:06:40;9.50;79.60
84739;DHT22;74969;44.836;-0.586;2024-03-08T08:09:09;9.60;79.80
84739;DHT22;74969;44.836;-0.586;2024-03-08T08:11:40;9.60;79.70
84739;DHT22;74969;44.836;-0.586;2024-03-08T08:14:09;9.60;79.70
84739;DHT22;74969;44.836;-0.586;2024-03-08T08:16:35;9.70;79.60
84739;DHT22;74969;44.836;-0.586;2024-03-08T08:19:07;9.60;79.60
84739;DHT22;74969;44.836;-0.586;2024-03-08T08:21:36;9.60;79.40
84739;DHT22;74969;44.836;-0.586;2024-03-08T08:24:04;9.70;79.30
84739;DHT22;74969;44.836;-0.586;2024-03-08T08:26:30;9.60;79.60
84739;DHT22;74969;44.836;-0.586;2024-03-08T08:28:56;9.50;79.40
84739;DHT22;74969;44.836;-0.586;2024-03-08T08:31:22;9.50;79.60
84739;DHT22;74969;44.836;-0.586;2024-03-08T08:33:48;9.60;79.30
84739;DHT22;74969;44.836;-0.586;2024-03-08T08:36:14;9.60;79.40
84739;DHT22;74969;44.836;-0.586;2024-03-08T08:38:40;9.60;79.30
84739;DHT22;74969;44.836;-0.586;2024-03-08T08:41:10;9.70;78.70
84739;DHT22;74969;44.836;-0.586;2024-03-08T08:43:36;9.60;78.70
84739;DHT22;74969;44.836;-0.586;2024-03-08T08:46:02;9.60;79.20
84739;DHT22;74969;44.836;-0.586;2024-03-08T08:48:28;9.60;78.80
84739;DHT22;74969;44.836;-0.586;2024-03-08T08:50:54;9.60;78.60
84739;DHT22;74969;44.836;-0.586;2024-03-08T08:53:21;9.60;78.40
84739;DHT22;74969;44.836;-0.586;2024-03-08T08:55:47;9.60;78.10
84739;DHT22;74969;44.836;-0.586;2024-03-08T08:58:13;9.50;77.80
84739;DHT22;74969;44.836;-0.586;2024-03-08T09:00:39;9.50;78.00
84739;DHT22;74969;44.836;-0.586;2024-03-08T09:03:05;9.50;78.30
84739;DHT22;74969;44.836;-0.586;2024-03-08T09:05:32;9.40;78.00
84739;DHT22;74969;44.836;-0.586;2024-03-08T09:07:59;9.40;78.10
84739;DHT22;74969;44.836;-0.586;2024-03-08T09:10:26;9.50;78.10
84739;DHT22;74969;44.836;-0.586;2024-03-08T09:12:53;9.50;77.90
84739;DHT22;74969;44.836;-0.586;2024-03-08T09:15:19;9.50;78.00
84739;DHT22;74969;44.836;-0.586;2024-03-08T09:17:46;9.50;78.00
84739;DHT22;74969;44.836;-0.586;2024-03-08T09:20:14;9.50;78.20
84739;DHT22;74969;44.836;-0.586;2024-03-08T09:22:44;9.50;77.90
84739;DHT22;74969;44.836;-0.586;2024-03-08T09:25:10;9.50;78.10
84739;DHT22;74969;44.836;-0.586;2024-03-08T09:27:35;9.40;78.00
84739;DHT22;74969;44.836;-0.586;2024-03-08T09:30:02;9.40;78.30
84739;DHT22;74969;44.836;-0.586;2024-03-08T09:32:28;9.40;78.50
84739;DHT22;74969;44.836;-0.586;2024-03-08T09:34:53;9.40;78.80
84739;DHT22;74969;44.836;-0.586;2024-03-08T09:37:19;9.40;78.80
84739;DHT22;74969;44.836;-0.586;2024-03-08T09:39:45;9.40;78.50
84739;DHT22;74969;44.836;-0.586;2024-03-08T09:42:11;9.40;78.70
84739;DHT22;74969;44.836;-0.586;2024-03-08T09:44:46;9.40;78.90
84739;DHT22;74969;44.836;-0.586;2024-03-08T09:47:16;9.40;78.90
84739;DHT22;74969;44.836;-0.586;2024-03-08T09:49:43;9.40;78.60
84739;DHT22;74969;44.836;-0.586;2024-03-08T09:52:09;9.40;78.40
84739;DHT22;74969;44.836;-0.586;2024-03-08T09:54:36;9.50;78.50
84739;DHT22;74969;44.836;-0.586;2024-03-08T09:57:04;9.60;78.40
84739;DHT22;74969;44.836;-0.586;2024-03-08T09:59:30;9.70;78.20
84739;DHT22;74969;44.836;-0.586;2024-03-08T10:01:59;9.90;78.00
84739;DHT22;74969;44.836;-0.586;2024-03-08T10:04:25;10.00;77.40
84739;DHT22;74969;44.836;-0.586;2024-03-08T10:06:53;10.00;77.00
84739;DHT22;74969;44.836;-0.586;2024-03-08T10:09:19;10.00;77.00
84739;DHT22;74969;44.836;-0.586;2024-03-08T10:11:46;10.00;76.70
84739;DHT22;74969;44.836;-0.586;2024-03-08T10:14:12;9.90;76.90
84739;DHT22;74969;44.836;-0.586;2024-03-08T10:16:41;9.90;76.80
84739;DHT22;74969;44.836;-0.586;2024-03-08T10:19:07;9.90;76.70
84739;DHT22;74969;44.836;-0.586;2024-03-08T10:21:33;9.90;76.90
84739;DHT22;74969;44.836;-0.586;2024-03-08T10:23:59;9.90;77.20
84739;DHT22;74969;44.836;-0.586;2024-03-08T10:26:25;9.90;76.80
84739;DHT22;74969;44.836;-0.586;2024-03-08T10:28:52;9.90;77.10
84739;DHT22;74969;44.836;-0.586;2024-03-08T10:31:23;10.00;76.70
84739;DHT22;74969;44.836;-0.586;2024-03-08T10:33:48;10.00;76.40
84739;DHT22;74969;44.836;-0.586;2024-03-08T10:36:17;10.00;76.40
84739;DHT22;74969;44.836;-0.586;2024-03-08T10:38:44;10.00;76.80
84739;DHT22;74969;44.836;-0.586;2024-03-08T10:41:12;10.10;76.50
84739;DHT22;74969;44.836;-0.586;2024-03-08T10:49:00;10.00;75.40
84739;DHT22;74969;44.836;-0.586;2024-03-08T10:51:30;9.90;75.70
84739;DHT22;74969;44.836;-0.586;2024-03-08T10:53:57;9.90;75.30
84739;DHT22;74969;44.836;-0.586;2024-03-08T10:56:25;9.90;75.70
84739;DHT22;74969;44.836;-0.586;2024-03-08T10:58:54;10.00;76.00
84739;DHT22;74969;44.836;-0.586;2024-03-08T11:01:21;10.00;75.60
84739;DHT22;74969;44.836;-0.586;2024-03-08T11:03:47;10.00;75.80
84739;DHT22;74969;44.836;-0.586;2024-03-08T11:09:01;10.10;75.50
84739;DHT22;74969;44.836;-0.586;2024-03-08T11:11:31;10.10;75.40
84739;DHT22;74969;44.836;-0.586;2024-03-08T11:13:58;10.00;75.70
84739;DHT22;74969;44.836;-0.586;2024-03-08T11:19:06;10.00;75.60
84739;DHT22;74969;44.836;-0.586;2024-03-08T11:21:57;9.90;76.00
84739;DHT22;74969;44.836;-0.586;2024-03-08T11:24:23;9.90;76.20
84739;DHT22;74969;44.836;-0.586;2024-03-08T11:26:49;10.00;76.50
84739;DHT22;74969;44.836;-0.586;2024-03-08T11:32:15;10.10;75.60
84739;DHT22;74969;44.836;-0.586;2024-03-08T11:34:45;10.10;76.30
84739;DHT22;74969;44.836;-0.586;2024-03-08T11:37:12;10.10;76.20
84739;DHT22;74969;44.836;-0.586;2024-03-08T11:39:39;10.20;76.00
84739;DHT22;74969;44.836;-0.586;2024-03-08T11:42:05;10.20;76.00
84739;DHT22;74969;44.836;-0.586;2024-03-08T11:44:32;10.20;75.70
84739;DHT22;74969;44.836;-0.586;2024-03-08T11:46:57;10.20;75.00
84739;DHT22;74969;44.836;-0.586;2024-03-08T11:49:23;10.30;75.40
84739;DHT22;74969;44.836;-0.586;2024-03-08T11:51:53;10.20;75.30
84739;DHT22;74969;44.836;-0.586;2024-03-08T11:54:21;10.30;75.50
84739;DHT22;74969;44.836;-0.586;2024-03-08T11:56:51;10.30;74.90
84739;DHT22;74969;44.836;-0.586;2024-03-08T11:59:16;10.30;74.90
84739;DHT22;74969;44.836;-0.586;2024-03-08T12:01:43;10.40;74.40
84739;DHT22;74969;44.836;-0.586;2024-03-08T12:04:12;10.30;74.70
84739;DHT22;74969;44.836;-0.586;2024-03-08T12:06:39;10.40;75.00
84739;DHT22;74969;44.836;-0.586;2024-03-08T12:09:11;10.40;74.20
84739;DHT22;74969;44.836;-0.586;2024-03-08T12:11:38;10.30;74.60
84739;DHT22;74969;44.836;-0.586;2024-03-08T12:14:04;10.30;74.60
84739;DHT22;74969;44.836;-0.586;2024-03-08T12:16:32;10.40;74.20
84739;DHT22;74969;44.836;-0.586;2024-03-08T12:18:58;10.30;74.20
84739;DHT22;74969;44.836;-0.586;2024-03-08T12:21:26;10.30;74.60
84739;DHT22;74969;44.836;-0.586;2024-03-08T12:24:06;10.30;74.80
84739;DHT22;74969;44.836;-0.586;2024-03-08T12:26:37;10.30;74.70
84739;DHT22;74969;44.836;-0.586;2024-03-08T12:29:26;10.40;74.20
84739;DHT22;74969;44.836;-0.586;2024-03-08T12:31:55;10.50;74.10
84739;DHT22;74969;44.836;-0.586;2024-03-08T12:34:24;10.50;73.90
84739;DHT22;74969;44.836;-0.586;2024-03-08T12:36:51;10.50;73.10
84739;DHT22;74969;44.836;-0.586;2024-03-08T12:39:20;10.40;73.40
84739;DHT22;74969;44.836;-0.586;2024-03-08T12:41:56;10.50;73.80
84739;DHT22;74969;44.836;-0.586;2024-03-08T12:44:27;10.50;73.40
84739;DHT22;74969;44.836;-0.586;2024-03-08T12:46:54;10.50;73.50
84739;DHT22;74969;44.836;-0.586;2024-03-08T12:49:20;10.50;73.20
84739;DHT22;74969;44.836;-0.586;2024-03-08T12:51:48;10.50;73.30
84739;DHT22;74969;44.836;-0.586;2024-03-08T12:54:14;10.50;72.90
84739;DHT22;74969;44.836;-0.586;2024-03-08T12:56:40;10.60;73.10
84739;DHT22;74969;44.836;-0.586;2024-03-08T12:59:07;10.70;73.10
84739;DHT22;74969;44.836;-0.586;2024-03-08T13:01:34;10.80;72.30
84739;DHT22;74969;44.836;-0.586;2024-03-08T13:04:03;10.80;72.00
84739;DHT22;74969;44.836;-0.586;2024-03-08T13:06:29;10.70;71.70
84739;DHT22;74969;44.836;-0.586;2024-03-08T13:08:57;10.70;71.80
84739;DHT22;74969;44.836;-0.586;2024-03-08T13:11:24;10.70;71.80
84739;DHT22;74969;44.836;-0.586;2024-03-08T13:13:50;10.80;71.90
84739;DHT22;74969;44.836;-0.586;2024-03-08T13:16:16;11.00;72.30
84739;DHT22;74969;44.836;-0.586;2024-03-08T13:18:43;11.20;71.50
84739;DHT22;74969;44.836;-0.586;2024-03-08T13:21:12;11.10;70.40
84739;DHT22;74969;44.836;-0.586;2024-03-08T13:23:41;11.00;71.20
84739;DHT22;74969;44.836;-0.586;2024-03-08T13:26:12;11.20;71.00
84739;DHT22;74969;44.836;-0.586;2024-03-08T13:28:45;11.10;70.90
84739;DHT22;74969;44.836;-0.586;2024-03-08T13:31:12;11.00;70.90
84739;DHT22;74969;44.836;-0.586;2024-03-08T13:33:39;11.10;71.10
84739;DHT22;74969;44.836;-0.586;2024-03-08T13:36:05;11.10;70.60
84739;DHT22;74969;44.836;-0.586;2024-03-08T13:38:32;11.20;71.20
84739;DHT22;74969;44.836;-0.586;2024-03-08T13:40:59;11.30;70.60
84739;DHT22;74969;44.836;-0.586;2024-03-08T13:43:24;11.40;69.30
84739;DHT22;74969;44.836;-0.586;2024-03-08T13:45:50;11.50;68.80
84739;DHT22;74969;44.836;-0.586;2024-03-08T13:48:18;11.70;68.80
84739;DHT22;74969;44.836;-0.586;2024-03-08T13:50:43;11.80;68.90
84739;DHT22;74969;44.836;-0.586;2024-03-08T13:53:09;11.80;66.80
84739;DHT22;74969;44.836;-0.586;2024-03-08T13:55:35;11.80;67.40
84739;DHT22;74969;44.836;-0.586;2024-03-08T13:58:01;11.90;67.30
84739;DHT22;74969;44.836;-0.586;2024-03-08T14:00:28;12.00;67.10
84739;DHT22;74969;44.836;-0.586;2024-03-08T14:02:59;12.10;66.70
84739;DHT22;74969;44.836;-0.586;2024-03-08T14:05:24;12.00;67.10
84739;DHT22;74969;44.836;-0.586;2024-03-08T14:07:50;12.20;67.10
84739;DHT22;74969;44.836;-0.586;2024-03-08T14:10:16;12.10;66.00
84739;DHT22;74969;44.836;-0.586;2024-03-08T14:12:45;11.80;66.50
84739;DHT22;74969;44.836;-0.586;2024-03-08T14:15:13;11.70;67.50
84739;DHT22;74969;44.836;-0.586;2024-03-08T14:17:39;11.90;67.70
84739;DHT22;74969;44.836;-0.586;2024-03-08T14:20:06;12.00;67.10
84739;DHT22;74969;44.836;-0.586;2024-03-08T14:22:32;12.00;66.20
84739;DHT22;74969;44.836;-0.586;2024-03-08T14:24:57;11.80;66.70
84739;DHT22;74969;44.836;-0.586;2024-03-08T14:27:23;11.70;66.80
84739;DHT22;74969;44.836;-0.586;2024-03-08T14:29:49;11.70;67.10
84739;DHT22;74969;44.836;-0.586;2024-03-08T14:32:15;11.90;67.40
84739;DHT22;74969;44.836;-0.586;2024-03-08T14:34:41;12.00;67.40
84739;DHT22;74969;44.836;-0.586;2024-03-08T14:37:06;12.10;66.70
84739;DHT22;74969;44.836;-0.586;2024-03-08T14:39:37;12.20;66.90
84739;DHT22;74969;44.836;-0.586;2024-03-08T14:42:03;12.10;66.10
84739;DHT22;74969;44.836;-0.586;2024-03-08T14:44:29;11.90;66.20
84739;DHT22;74969;44.836;-0.586;2024-03-08T14:46:58;11.80;66.00
84739;DHT22;74969;44.836;-0.586;2024-03-08T14:49:25;11.70;66.70
84739;DHT22;74969;44.836;-0.586;2024-03-08T14:51:55;11.80;66.40
84739;DHT22;74969;44.836;-0.586;2024-03-08T14:54:23;11.80;65.70
84739;DHT22;74969;44.836;-0.586;2024-03-08T14:56:49;11.70;65.80
84739;DHT22;74969;44.836;-0.586;2024-03-08T14:59:16;11.70;65.80
84739;DHT22;74969;44.836;-0.586;2024-03-08T15:01:42;11.70;65.70
84739;DHT22;74969;44.836;-0.586;2024-03-08T15:04:09;11.70;65.30
84739;DHT22;74969;44.836;-0.586;2024-03-08T15:06:38;11.70;65.40
84739;DHT22;74969;44.836;-0.586;2024-03-08T15:09:07;11.70;65.70
84739;DHT22;74969;44.836;-0.586;2024-03-08T15:11:40;11.60;65.70
84739;DHT22;74969;44.836;-0.586;2024-03-08T15:14:07;11.70;65.60
84739;DHT22;74969;44.836;-0.586;2024-03-08T15:16:37;11.70;65.90
84739;DHT22;74969;44.836;-0.586;2024-03-08T15:19:05;11.80;65.30
84739;DHT22;74969;44.836;-0.586;2024-03-08T15:21:31;11.70;65.60
84739;DHT22;74969;44.836;-0.586;2024-03-08T15:23:57;11.70;65.90
84739;DHT22;74969;44.836;-0.586;2024-03-08T15:26:23;11.80;65.40
84739;DHT22;74969;44.836;-0.586;2024-03-08T15:28:51;11.70;65.70
84739;DHT22;74969;44.836;-0.586;2024-03-08T15:31:17;11.70;66.10
84739;DHT22;74969;44.836;-0.586;2024-03-08T15:33:46;11.80;66.20